createdAt,value
2019-01-04T00:01:22.796Z,2.30
2019-01-04T00:03:51.199Z,2.30
2019-01-04T00:06:19.617Z,2.30
2019-01-04T00:08:48.103Z,2.30
2019-01-04T00:11:16.525Z,2.30
2019-01-04T00:13:44.923Z,2.20
2019-01-04T00:16:13.425Z,2.20
2019-01-04T00:18:41.847Z,2.20
2019-01-04T00:21:10.257Z,2.20
2019-01-04T00:23:38.666Z,2.10
2019-01-04T00:26:07.085Z,2.10
2019-01-04T00:28:35.509Z,2.00
2019-01-04T00:31:04.315Z,2.00
2019-01-04T00:33:32.716Z,2.00
2019-01-04T00:36:01.118Z,2.00
2019-01-04T00:38:29.866Z,2.00
2019-01-04T00:40:58.289Z,2.10
2019-01-04T00:43:26.709Z,2.00
2019-01-04T00:45:55.179Z,2.00
2019-01-04T00:48:23.594Z,2.00
2019-01-04T00:50:52.006Z,1.90
2019-01-04T00:53:20.426Z,1.90
2019-01-04T00:56:10.086Z,1.90
2019-01-04T00:58:50.467Z,1.90
2019-01-04T01:01:24.847Z,1.90
2019-01-04T01:03:56.924Z,1.80
2019-01-04T01:06:31.382Z,1.80
2019-01-04T01:09:18.125Z,1.80
2019-01-04T01:12:06.346Z,1.80
2019-01-04T01:14:53.026Z,1.70
2019-01-04T01:17:49.274Z,1.70
2019-01-04T01:20:24.036Z,1.70
2019-01-04T01:23:16.858Z,1.70
2019-01-04T01:26:05.184Z,1.70
2019-01-04T01:28:54.554Z,1.70
2019-01-04T01:31:43.486Z,1.70
2019-01-04T01:34:43.674Z,1.60
2019-01-04T01:37:39.693Z,1.60
2019-01-04T01:40:27.787Z,1.60
2019-01-04T01:43:36.060Z,1.60
2019-01-04T01:46:16.188Z,1.60
2019-01-04T01:48:47.998Z,1.70
2019-01-04T01:51:19.747Z,1.70
2019-01-04T01:53:48.474Z,1.80
2019-01-04T01:56:16.898Z,1.80
2019-01-04T01:58:45.302Z,1.80
2019-01-04T02:01:13.987Z,1.90
2019-01-04T02:03:42.691Z,1.90
2019-01-04T02:06:11.092Z,2.00
2019-01-04T02:08:39.505Z,2.00
2019-01-04T02:11:08.226Z,2.10
2019-01-04T02:13:36.641Z,2.10
2019-01-04T02:16:05.068Z,2.10
2019-01-04T02:18:33.481Z,2.10
2019-01-04T02:21:01.905Z,2.10
2019-01-04T02:23:30.653Z,2.00
2019-01-04T02:25:59.080Z,2.00
2019-01-04T02:28:27.777Z,1.90
2019-01-04T02:30:56.202Z,1.90
2019-01-04T02:33:24.598Z,1.90
2019-01-04T02:35:53.024Z,1.90
2019-01-04T02:38:21.426Z,1.80
2019-01-04T02:40:49.835Z,1.80
2019-01-04T02:43:18.256Z,1.70
2019-01-04T02:45:47.005Z,1.70
2019-01-04T02:48:15.430Z,1.70
2019-01-04T02:50:43.834Z,1.60
2019-01-04T02:53:12.254Z,1.60
2019-01-04T02:55:40.654Z,1.60
2019-01-04T02:58:09.093Z,1.50
2019-01-04T03:00:37.741Z,1.50
2019-01-04T03:03:06.462Z,1.40
2019-01-04T03:05:34.877Z,1.40
2019-01-04T03:08:03.277Z,1.40
2019-01-04T03:10:31.722Z,1.30
2019-01-04T03:13:00.385Z,1.30
2019-01-04T03:15:29.101Z,1.30
2019-01-04T03:17:57.527Z,1.30
2019-01-04T03:20:25.935Z,1.20
2019-01-04T03:22:54.561Z,1.30
2019-01-04T03:25:22.985Z,1.40
2019-01-04T03:27:51.405Z,1.50
2019-01-04T03:30:19.808Z,1.50
2019-01-04T03:32:48.288Z,1.60
2019-01-04T03:35:16.947Z,1.70
2019-01-04T03:37:45.365Z,1.80
2019-01-04T03:40:13.781Z,1.80
2019-01-04T03:42:42.200Z,1.90
2019-01-04T03:45:10.609Z,1.90
2019-01-04T03:47:39.037Z,1.90
2019-01-04T03:50:07.547Z,1.90
2019-01-04T03:52:36.088Z,2.00
2019-01-04T03:55:05.142Z,2.00
2019-01-04T03:57:33.803Z,2.10
2019-01-04T04:00:02.292Z,2.00
2019-01-04T04:02:30.709Z,2.10
2019-01-04T04:04:59.468Z,2.10
2019-01-04T04:07:27.868Z,2.10
2019-01-04T04:09:56.585Z,2.10
2019-01-04T04:12:25.009Z,2.30
2019-01-04T04:14:53.437Z,2.30
2019-01-04T04:17:21.842Z,2.30
2019-01-04T04:19:50.268Z,2.30
2019-01-04T04:22:18.678Z,2.40
2019-01-04T04:24:47.087Z,2.40
2019-01-04T04:27:15.494Z,2.40
2019-01-04T04:29:43.913Z,2.50
2019-01-04T04:32:12.333Z,2.50
2019-01-04T04:34:40.756Z,2.50
2019-01-04T04:37:09.434Z,2.60
2019-01-04T04:39:37.846Z,2.60
2019-01-04T04:42:06.255Z,2.70
2019-01-04T04:44:34.955Z,2.70
2019-01-04T04:47:03.655Z,2.70
2019-01-04T04:49:32.082Z,2.60
2019-01-04T04:52:00.776Z,2.70
2019-01-04T04:54:29.181Z,2.70
2019-01-04T04:56:57.634Z,2.80
2019-01-04T04:59:26.306Z,2.80
2019-01-04T05:01:55.016Z,2.80
2019-01-04T05:04:23.469Z,2.70
2019-01-04T05:06:51.876Z,2.70
2019-01-04T05:09:20.296Z,2.80
2019-01-04T05:11:48.725Z,2.80
2019-01-04T05:14:17.133Z,3.00
2019-01-04T05:16:45.554Z,3.10
2019-01-04T05:19:13.982Z,3.10
2019-01-04T05:21:42.768Z,3.10
2019-01-04T05:24:11.463Z,3.20
2019-01-04T05:26:39.869Z,3.10
2019-01-04T05:29:08.327Z,3.20
2019-01-04T05:31:36.743Z,3.20
2019-01-04T05:34:05.499Z,3.30
2019-01-04T05:36:33.910Z,3.30
2019-01-04T05:39:02.382Z,3.10
2019-01-04T05:41:30.795Z,3.10
2019-01-04T05:43:59.218Z,3.00
2019-01-04T05:46:27.627Z,3.00
2019-01-04T05:48:56.041Z,3.00
2019-01-04T05:51:24.473Z,3.00
2019-01-04T05:53:52.874Z,2.80
2019-01-04T05:56:21.310Z,2.70
2019-01-04T05:58:49.737Z,2.70
2019-01-04T06:01:18.156Z,2.70
2019-01-04T06:03:46.576Z,2.70
2019-01-04T06:06:15.006Z,2.80
2019-01-04T06:08:43.402Z,2.70
2019-01-04T06:11:11.803Z,2.70
2019-01-04T06:13:40.233Z,2.70
2019-01-04T06:16:08.994Z,2.80
2019-01-04T06:18:37.493Z,2.90
2019-01-04T06:21:05.906Z,2.90
2019-01-04T06:23:34.618Z,2.80
2019-01-04T06:26:03.021Z,2.80
2019-01-04T06:28:31.435Z,2.90
2019-01-04T06:31:00.126Z,3.00
2019-01-04T06:33:28.798Z,3.00
2019-01-04T06:35:57.232Z,3.10
2019-01-04T06:38:25.969Z,3.10
2019-01-04T06:40:54.822Z,3.20
2019-01-04T06:43:23.608Z,3.20
2019-01-04T06:45:52.018Z,3.20
2019-01-04T06:48:20.696Z,3.30
2019-01-04T06:50:49.108Z,3.40
2019-01-04T06:53:17.527Z,3.40
2019-01-04T06:55:48.695Z,3.40
2019-01-04T06:58:17.099Z,3.40
2019-01-04T07:00:45.787Z,3.40
2019-01-04T07:03:14.207Z,3.40
2019-01-04T07:05:42.615Z,3.40
2019-01-04T07:08:11.042Z,3.40
2019-01-04T07:10:39.454Z,3.40
2019-01-04T07:13:07.870Z,3.40
2019-01-04T07:15:36.739Z,3.40
2019-01-04T07:18:05.169Z,3.40
2019-01-04T07:20:33.576Z,3.40
2019-01-04T07:23:01.995Z,3.40
2019-01-04T07:25:30.673Z,3.40
2019-01-04T07:27:59.110Z,3.40
2019-01-04T07:30:27.506Z,3.50
2019-01-04T07:32:56.037Z,3.50
2019-01-04T07:35:24.463Z,3.50
2019-01-04T07:37:52.893Z,3.60
2019-01-04T07:40:21.313Z,3.50
2019-01-04T07:42:49.725Z,3.60
2019-01-04T07:45:18.134Z,3.50
2019-01-04T07:47:46.547Z,3.50
2019-01-04T07:50:15.222Z,3.50
2019-01-04T07:52:43.635Z,3.60
2019-01-04T07:55:12.303Z,3.60
2019-01-04T07:57:40.969Z,3.60
2019-01-04T08:00:11.622Z,3.70
2019-01-04T08:02:41.860Z,3.80
2019-01-04T08:05:15.363Z,3.80
2019-01-04T08:07:44.089Z,3.60
2019-01-04T08:10:12.631Z,3.70
2019-01-04T08:12:41.404Z,3.80
2019-01-04T08:15:11.257Z,3.80
2019-01-04T08:17:39.674Z,3.90
2019-01-04T08:20:10.126Z,3.90
2019-01-04T08:22:38.554Z,4.00
2019-01-04T08:25:08.451Z,4.00
2019-01-04T08:27:36.922Z,4.10
2019-01-04T08:30:08.413Z,4.20
2019-01-04T08:32:36.828Z,4.20
2019-01-04T08:35:05.679Z,4.30
2019-01-04T08:37:34.091Z,4.30
2019-01-04T08:40:02.506Z,4.40
2019-01-04T08:42:30.920Z,4.50
2019-01-04T08:44:59.345Z,4.50
2019-01-04T08:47:28.067Z,4.60
2019-01-04T08:49:56.783Z,4.60
2019-01-04T08:52:25.499Z,4.60
2019-01-04T08:54:53.924Z,4.70
2019-01-04T08:57:22.314Z,4.70
2019-01-04T08:59:50.749Z,4.70
2019-01-04T09:02:19.173Z,4.80
2019-01-04T09:04:47.612Z,4.80
2019-01-04T09:07:16.259Z,4.80
2019-01-04T09:09:44.727Z,4.80
2019-01-04T09:12:13.135Z,4.90
2019-01-04T09:14:41.838Z,4.90
2019-01-04T09:17:10.560Z,4.90
2019-01-04T09:19:38.966Z,4.90
2019-01-04T09:22:07.396Z,4.90
2019-01-04T09:24:36.075Z,4.90
2019-01-04T09:27:04.571Z,5.00
2019-01-04T09:29:32.970Z,5.00
2019-01-04T09:32:01.403Z,5.10
2019-01-04T09:34:30.107Z,5.10
2019-01-04T09:36:58.919Z,5.20
2019-01-04T09:39:28.313Z,5.20
2019-01-04T09:41:57.590Z,5.30
2019-01-04T09:44:26.288Z,5.40
2019-01-04T09:46:55.054Z,5.60
2019-01-04T09:49:23.490Z,5.50
2019-01-04T09:51:51.905Z,5.60
2019-01-04T09:54:20.626Z,5.60
2019-01-04T09:56:49.041Z,5.50
2019-01-04T09:59:17.447Z,5.60
2019-01-04T10:01:45.877Z,5.50
2019-01-04T10:04:14.635Z,5.60
2019-01-04T10:06:43.352Z,5.60
2019-01-04T10:09:11.763Z,5.60
2019-01-04T10:11:40.168Z,5.60
2019-01-04T10:14:08.875Z,5.60
2019-01-04T10:16:37.579Z,5.50
2019-01-04T10:19:05.996Z,5.40
2019-01-04T10:21:34.695Z,5.40
2019-01-04T10:24:03.407Z,5.50
2019-01-04T10:26:32.125Z,5.50
2019-01-04T10:29:00.536Z,5.50
2019-01-04T10:31:28.959Z,5.50
2019-01-04T10:33:57.389Z,5.50
2019-01-04T10:36:26.055Z,5.40
2019-01-04T10:38:54.943Z,5.40
2019-01-04T10:41:23.358Z,5.30
2019-01-04T10:43:51.774Z,5.30
2019-01-04T10:46:20.197Z,5.40
2019-01-04T10:48:48.876Z,5.40
2019-01-04T10:51:17.622Z,5.40
2019-01-04T10:53:46.025Z,5.50
2019-01-04T10:56:14.714Z,5.30
2019-01-04T10:58:43.134Z,5.30
2019-01-04T11:01:11.549Z,5.30
2019-01-04T11:03:39.977Z,5.30
2019-01-04T11:06:08.417Z,5.30
2019-01-04T11:08:36.841Z,5.40
2019-01-04T11:11:05.276Z,5.30
2019-01-04T11:13:33.705Z,5.30
2019-01-04T11:16:02.120Z,5.30
2019-01-04T11:18:30.864Z,5.40
2019-01-04T11:20:59.579Z,5.40
2019-01-04T11:23:53.650Z,5.40
2019-01-04T11:26:27.922Z,5.40
2019-01-04T11:29:17.317Z,5.30
2019-01-04T11:31:57.716Z,5.20
2019-01-04T11:34:35.245Z,5.20
2019-01-04T11:37:18.914Z,5.20
2019-01-04T11:40:05.445Z,5.20
2019-01-04T11:42:57.810Z,5.30
2019-01-04T11:45:32.261Z,5.20
2019-01-04T11:48:12.605Z,5.10
2019-01-04T11:50:46.741Z,5.20
2019-01-04T11:53:16.308Z,5.10
2019-01-04T11:55:44.725Z,5.20
2019-01-04T11:58:13.146Z,5.30
2019-01-04T12:00:41.556Z,5.20
2019-01-04T12:03:10.230Z,5.30
2019-01-04T12:05:38.635Z,5.20
2019-01-04T12:08:07.071Z,5.20
2019-01-04T12:10:35.749Z,5.30
2019-01-04T12:13:04.168Z,5.20
2019-01-04T12:15:32.590Z,5.20
2019-01-04T12:18:01.291Z,5.20
2019-01-04T12:20:29.992Z,5.10
2019-01-04T12:22:58.399Z,5.00
2019-01-04T12:25:26.833Z,5.00
2019-01-04T12:27:55.614Z,5.10
2019-01-04T12:30:24.334Z,5.10
2019-01-04T12:32:52.745Z,5.10
2019-01-04T12:35:21.155Z,5.10
2019-01-04T12:37:49.838Z,5.00
2019-01-04T12:40:18.247Z,5.00
2019-01-04T12:42:46.950Z,5.10
2019-01-04T12:45:15.369Z,5.10
2019-01-04T12:47:43.766Z,5.00
2019-01-04T12:50:12.190Z,5.10
2019-01-04T12:52:40.609Z,5.10
2019-01-04T12:55:09.278Z,5.10
2019-01-04T12:57:37.709Z,5.10
2019-01-04T13:00:09.579Z,5.20
2019-01-04T13:02:37.988Z,5.10
2019-01-04T13:05:06.799Z,5.20
2019-01-04T13:07:35.208Z,5.10
2019-01-04T13:10:04.297Z,5.20
2019-01-04T13:12:32.717Z,5.20
2019-01-04T13:15:01.145Z,5.10
2019-01-04T13:17:29.570Z,5.10
2019-01-04T13:19:58.249Z,5.00
2019-01-04T13:22:26.647Z,5.10
2019-01-04T13:24:55.164Z,5.10
2019-01-04T13:27:23.583Z,5.20
2019-01-04T13:29:52.009Z,5.10
2019-01-04T13:32:20.414Z,5.10
2019-01-04T13:34:48.877Z,5.00
2019-01-04T13:37:17.302Z,5.00
2019-01-04T13:39:45.984Z,5.10
2019-01-04T13:42:14.705Z,5.10
2019-01-04T13:44:43.133Z,5.10
2019-01-04T13:47:11.554Z,5.20
2019-01-04T13:49:39.968Z,5.20
2019-01-04T13:52:08.385Z,5.20
2019-01-04T13:54:36.817Z,5.10
2019-01-04T13:57:05.228Z,5.20
2019-01-04T13:59:33.942Z,5.10
2019-01-04T14:02:02.369Z,5.00
2019-01-04T14:04:30.785Z,5.00
2019-01-04T14:06:59.578Z,5.10
2019-01-04T14:09:28.069Z,5.00
2019-01-04T14:11:56.506Z,5.00
2019-01-04T14:14:24.911Z,5.00
2019-01-04T14:16:53.315Z,5.00
2019-01-04T14:19:21.727Z,5.00
2019-01-04T14:21:50.396Z,4.90
2019-01-04T14:24:19.113Z,4.90
2019-01-04T14:26:47.829Z,4.90
2019-01-04T14:29:16.277Z,5.00
2019-01-04T14:31:44.747Z,5.00
2019-01-04T14:34:13.146Z,5.00
2019-01-04T14:36:41.850Z,5.20
2019-01-04T14:39:10.260Z,5.20
2019-01-04T14:41:38.663Z,5.30
2019-01-04T14:44:07.089Z,5.30
2019-01-04T14:46:35.504Z,5.20
2019-01-04T14:49:04.172Z,5.30
2019-01-04T14:51:32.574Z,5.40
2019-01-04T14:54:01.296Z,5.40
2019-01-04T14:56:30.009Z,5.30
2019-01-04T14:58:58.410Z,5.20
2019-01-04T15:01:26.832Z,5.30
2019-01-04T15:03:55.277Z,5.20
2019-01-04T15:06:23.690Z,5.20
2019-01-04T15:08:52.088Z,5.30
2019-01-04T15:11:20.532Z,5.30
2019-01-04T15:13:48.941Z,5.30
2019-01-04T15:16:17.344Z,5.20
2019-01-04T15:18:45.754Z,5.20
2019-01-04T15:21:14.177Z,5.20
2019-01-04T15:23:42.575Z,5.30
2019-01-04T15:26:10.974Z,5.10
2019-01-04T15:28:39.397Z,5.10
2019-01-04T15:31:08.172Z,5.20
2019-01-04T15:33:36.595Z,5.20
2019-01-04T15:36:05.291Z,5.20
2019-01-04T15:38:36.374Z,5.20
2019-01-04T15:41:03.857Z,5.20
2019-01-04T15:43:32.301Z,5.20
2019-01-04T15:46:00.717Z,5.30
2019-01-04T15:48:29.132Z,5.20
2019-01-04T15:50:57.559Z,5.20
2019-01-04T15:53:27.245Z,5.20
2019-01-04T15:55:55.650Z,5.30
2019-01-04T15:58:24.075Z,5.30
2019-01-04T16:00:52.497Z,5.30
2019-01-04T16:03:21.219Z,5.30
2019-01-04T16:05:49.648Z,5.30
2019-01-04T16:08:18.330Z,5.20
2019-01-04T16:10:47.656Z,5.30
2019-01-04T16:13:16.082Z,5.30
2019-01-04T16:15:44.774Z,5.40
2019-01-04T16:18:13.228Z,5.30
2019-01-04T16:20:41.641Z,5.40
2019-01-04T16:23:10.052Z,5.40
2019-01-04T16:25:38.466Z,5.40
2019-01-04T16:28:07.202Z,5.40
2019-01-04T16:30:35.670Z,5.40
2019-01-04T16:33:04.082Z,5.40
2019-01-04T16:35:32.841Z,5.40
2019-01-04T16:38:01.281Z,5.40
2019-01-04T16:40:29.719Z,5.40
2019-01-04T16:42:58.133Z,5.40
2019-01-04T16:45:26.553Z,5.50
2019-01-04T16:47:56.630Z,5.50
2019-01-04T16:50:25.052Z,5.50
2019-01-04T16:52:59.316Z,5.50
2019-01-04T16:55:26.907Z,5.40
2019-01-04T16:57:55.473Z,5.50
2019-01-04T17:00:24.144Z,5.40
2019-01-04T17:02:52.539Z,5.40
2019-01-04T17:05:20.942Z,5.40
2019-01-04T17:07:49.662Z,5.50
2019-01-04T17:10:18.066Z,5.40
2019-01-04T17:12:46.787Z,5.50
2019-01-04T17:15:15.190Z,5.50
2019-01-04T17:17:43.886Z,5.50
2019-01-04T17:20:12.301Z,5.50
2019-01-04T17:22:40.717Z,5.50
2019-01-04T17:25:09.195Z,5.50
2019-01-04T17:27:37.610Z,5.50
2019-01-04T17:30:08.668Z,5.50
2019-01-04T17:32:37.062Z,5.40
2019-01-04T17:35:06.062Z,5.50
2019-01-04T17:37:34.478Z,5.60
2019-01-04T17:40:03.222Z,5.50
2019-01-04T17:42:31.684Z,5.50
2019-01-04T17:45:00.225Z,5.50
2019-01-04T17:47:28.596Z,5.50
2019-01-04T17:49:57.255Z,5.60
2019-01-04T17:52:25.685Z,5.50
2019-01-04T17:54:54.095Z,5.60
2019-01-04T17:57:22.775Z,5.60
2019-01-04T17:59:51.186Z,5.70
2019-01-04T18:02:19.621Z,5.70
2019-01-04T18:04:48.298Z,5.70
2019-01-04T18:07:16.727Z,5.70
2019-01-04T18:09:45.141Z,5.70
2019-01-04T18:12:13.829Z,5.70
2019-01-04T18:14:42.531Z,5.70
2019-01-04T18:17:10.933Z,5.80
2019-01-04T18:19:39.361Z,5.80
2019-01-04T18:22:07.774Z,5.80
2019-01-04T18:24:36.192Z,5.70
2019-01-04T18:27:04.869Z,5.70
2019-01-04T18:29:33.313Z,5.70
2019-01-04T18:32:01.729Z,5.80
2019-01-04T18:34:30.157Z,5.80
2019-01-04T18:36:58.888Z,5.90
2019-01-04T18:39:27.610Z,5.90
2019-01-04T18:41:56.107Z,5.90
2019-01-04T18:44:24.540Z,5.90
2019-01-04T18:46:52.955Z,5.90
2019-01-04T18:49:21.350Z,5.90
2019-01-04T18:51:50.043Z,5.90
2019-01-04T18:54:18.454Z,5.90
2019-01-04T18:56:46.883Z,5.80
2019-01-04T18:59:15.566Z,5.80
2019-01-04T19:01:43.985Z,5.90
2019-01-04T19:04:12.387Z,5.90
2019-01-04T19:06:40.812Z,5.90
2019-01-04T19:09:09.232Z,5.90
2019-01-04T19:11:37.640Z,5.90
2019-01-04T19:14:06.053Z,5.80
2019-01-04T19:16:34.477Z,5.90
2019-01-04T19:19:02.892Z,5.90
2019-01-04T19:21:31.617Z,5.80
2019-01-04T19:24:00.049Z,5.80
2019-01-04T19:26:28.442Z,5.90
2019-01-04T19:28:56.941Z,6.00
2019-01-04T19:31:25.644Z,5.90
2019-01-04T19:33:54.093Z,6.00
2019-01-04T19:36:22.512Z,6.00
2019-01-04T19:38:50.949Z,5.90
2019-01-04T19:41:19.371Z,5.90
2019-01-04T19:43:48.171Z,5.90
2019-01-04T19:46:16.587Z,6.00
2019-01-04T19:48:44.994Z,6.00
2019-01-04T19:51:13.450Z,6.00
2019-01-04T19:53:41.933Z,6.00
2019-01-04T19:56:10.335Z,6.10
2019-01-04T19:58:38.746Z,6.10
2019-01-04T20:01:07.211Z,6.00
2019-01-04T20:03:35.617Z,6.00
2019-01-04T20:06:26.824Z,6.00
2019-01-04T20:09:02.954Z,6.10
2019-01-04T20:12:18.352Z,6.10
2019-01-04T20:15:23.158Z,6.20
2019-01-04T20:17:53.476Z,6.10
2019-01-04T20:20:40.091Z,6.00
2019-01-04T20:23:26.505Z,6.00
2019-01-04T20:26:02.311Z,6.00
2019-01-04T20:28:50.035Z,6.00
2019-01-04T20:31:37.035Z,6.00
2019-01-04T20:34:16.510Z,6.00
2019-01-04T20:37:04.823Z,6.10
2019-01-04T20:39:50.884Z,6.10
2019-01-04T20:42:29.590Z,6.10
2019-01-04T20:45:08.580Z,6.30
2019-01-04T20:47:54.646Z,6.30
2019-01-04T20:50:30.748Z,6.20
2019-01-04T20:53:00.808Z,6.20
2019-01-04T20:55:49.450Z,6.20
2019-01-04T20:58:37.695Z,6.20
2019-01-04T21:01:22.856Z,6.20
2019-01-04T21:03:55.941Z,6.20
2019-01-04T21:06:26.280Z,6.30
2019-01-04T21:09:11.619Z,6.30
2019-01-04T21:11:47.878Z,6.30
2019-01-04T21:14:24.057Z,6.30
2019-01-04T21:16:54.409Z,6.30
2019-01-04T21:19:27.260Z,6.40
2019-01-04T21:22:15.371Z,6.40
2019-01-04T21:24:54.180Z,6.30
2019-01-04T21:27:36.325Z,6.30
2019-01-04T21:30:10.064Z,6.40
2019-01-04T21:32:55.293Z,6.40
2019-01-04T21:35:41.985Z,6.40
2019-01-04T21:38:28.838Z,6.40
2019-01-04T21:41:04.948Z,6.30
2019-01-04T21:43:47.270Z,6.40
2019-01-04T21:46:17.650Z,6.40
2019-01-04T21:48:59.775Z,6.50
2019-01-04T21:51:32.728Z,6.50
2019-01-04T21:54:19.334Z,6.50
2019-01-04T21:56:55.166Z,6.50
2019-01-04T21:59:34.021Z,6.50
2019-01-04T22:02:07.027Z,6.50
2019-01-04T22:04:42.813Z,6.50
2019-01-04T22:07:12.893Z,6.50
2019-01-04T22:09:54.836Z,6.50
2019-01-04T22:12:41.226Z,6.60
2019-01-04T22:15:11.686Z,6.60
2019-01-04T22:17:53.848Z,6.70
2019-01-04T22:20:30.096Z,6.60
2019-01-04T22:23:09.459Z,6.60
2019-01-04T22:25:48.818Z,6.60
2019-01-04T22:28:21.611Z,6.70
2019-01-04T22:31:00.517Z,6.70
2019-01-04T22:33:47.074Z,6.70
2019-01-04T22:36:23.451Z,6.70
2019-01-04T22:39:05.635Z,6.70
2019-01-04T22:41:38.757Z,6.60
2019-01-04T22:44:17.856Z,6.70
2019-01-04T22:46:54.005Z,6.70
2019-01-04T22:49:40.667Z,6.70
2019-01-04T22:52:27.201Z,6.70
2019-01-04T22:54:57.261Z,6.70
2019-01-04T22:57:27.556Z,6.80
2019-01-04T22:59:57.606Z,6.80
2019-01-04T23:02:27.683Z,6.70
2019-01-04T23:05:12.964Z,6.80
2019-01-04T23:07:48.745Z,6.70
2019-01-04T23:10:30.874Z,6.80
2019-01-04T23:13:03.891Z,6.90
2019-01-04T23:15:37.303Z,6.90
2019-01-04T23:18:24.040Z,6.90
2019-01-04T23:21:10.129Z,6.90
2019-01-04T23:23:55.925Z,6.90
2019-01-04T23:26:26.229Z,6.90
2019-01-04T23:29:11.527Z,6.80
2019-01-04T23:31:47.620Z,6.80
2019-01-04T23:34:17.963Z,6.70
2019-01-04T23:36:53.784Z,6.60
2019-01-04T23:39:32.541Z,6.50
2019-01-04T23:42:17.727Z,6.50
2019-01-04T23:44:57.274Z,6.60
2019-01-04T23:47:33.185Z,6.60
2019-01-04T23:50:03.621Z,6.60
2019-01-04T23:52:50.138Z,6.50
2019-01-04T23:55:32.466Z,6.60
2019-01-04T23:58:17.589Z,6.70
